Custom file does not exist C:\wdisplay\webfiles\testtags.txt Borgafjälls vädersida - Nearby METAR Reports

Nearby METAR Reports

 

KSJC - San Jose, California, USA
Distance from station: NO 14km
Uppdaterad: 29/07/2021 13:53
Klart
Klart
 Vind frn NV
Vind: NV 7 km/h
Temperatur: 16°C
Daggpunkt: 14°C
Luftfuktighet: 88%
Barometer: 1014.6 hPa
Clouds: Klart
Visibility: 16 km
2021/07/29 11:53 KSJC 291153Z AUTO 32004KT 10SM CLR 16/14 A2996 RMK AO2 SLP146 T01610139 10194 20161 55002 $
KNUQ - Moffett Nas/Mtn, California, USA
Distance from station: N 14km
Uppdaterad: 29/07/2021 13:55
Genommulet
Genommulet
 Vind frn N
Vind: N 11 km/h
Temperatur: 17°C
Daggpunkt: 15°C
Luftfuktighet: 88%
Barometer: 1014.9 hPa
Clouds: Genommulet
Visibility: 16 km
Cloud details: Genommulet 244 m
2021/07/29 11:55 KNUQ 291155Z AUTO 36006KT 10SM OVC008 17/15 A2997 RMK AO2
 
KPAO - Palo Alto, California, USA
Distance from station: NNV 23km
Uppdaterad: 29/07/2021 05:47
NOT Current
Delvis molnigt
Delvis molnigt
 Vind frn NV
Vind: NV 11 km/h
Temperatur: 18°C
Daggpunkt: 14°C
Luftfuktighet: 78%
Barometer: 1015.2 hPa
Clouds: Delvis molnigt
Visibility: 16 km
Cloud details: Delvis molnigt 3658 m
2021/07/29 03:47 KPAO 290347Z 31006KT 10SM SCT120 18/14 A2998 RMK LAST
KRHV - San Jose/Reid, California, USA
Distance from station: ONO 19km
Uppdaterad: 29/07/2021 06:55
NOT Current
Delvis molnigt
Delvis molnigt
 Vind frn NV
Vind: NV 7 km/h
Temperatur: 21°C
Daggpunkt: 13°C
Luftfuktighet: 60%
Barometer: 1015.9 hPa
Clouds: Delvis molnigt
Visibility: 16 km
Cloud details: Delvis molnigt 4572 m
2021/07/29 04:55 KRHV 290455Z 31004KT 10SM SCT150 21/13 A3000 RMK LAST
 
KOAK - Oakland, California, USA
Distance from station: NNV 50km
Uppdaterad: 29/07/2021 13:53
Genommulet
Genommulet
 Vind frn NNV
Vind: NNV 9 km/h
Temperatur: 14°C
Daggpunkt: 13°C
Luftfuktighet: 94%
Barometer: 1014.9 hPa
Clouds: Genommulet
Visibility: 16 km
Cloud details: Genommulet 183 m
2021/07/29 11:53 KOAK 291153Z 34005KT 10SM OVC006 14/13 A2997 RMK AO2 SLP148 T01440128 10150 20144 56004
KSQL - San Carlos Airpo, California, USA
Distance from station: NV 34km
Uppdaterad: 29/07/2021 13:55
Genommulet
Genommulet
 Vind frn calm
Vind: Vindstilla
Temperatur: 15°C
Daggpunkt: 14°C
Luftfuktighet: 94%
Barometer: 1015.2 hPa
Clouds: Genommulet
Visibility: 16 km
Cloud details: Genommulet 335 m
2021/07/29 11:55 KSQL 291155Z AUTO 00000KT 10SM OVC011 15/14 A2998 RMK AO2
 
KSFO - San Francisco, California, USA
Distance from station: NV 49km
Uppdaterad: 29/07/2021 13:56
vervgande molnigt
vervgande molnigt
 Vind frn VNV
Vind: VNV 11 km/h
Temperatur: 14°C
Daggpunkt: 13°C
Luftfuktighet: 94%
Barometer: 1014.6 hPa
Clouds: vervgande molnigt
Visibility: 16 km
Cloud details: Few Clouds 152 m
vervgande molnigt 6096 m
2021/07/29 11:56 KSFO 291156Z 30006KT 10SM FEW005 BKN200 14/13 A2996 RMK AO2 SLP146 T01390128 10156 20139 55003
KE16 - San Martin, California, USA
Distance from station: OSO 43km
Uppdaterad: 29/07/2021 13:55
Klart
Klart
 Vind frn SO
Vind: SO 7 km/h
Temperatur: 14°C
Daggpunkt: 13°C
Luftfuktighet: 94%
Barometer: 1015.9 hPa
Clouds: Klart
Visibility: 16 km
2021/07/29 11:55 KE16 291155Z AUTO 14004KT 10SM CLR 14/13 A3000 RMK AO2 PWINO PNO
 
KWVI - Watsonville, California, USA
Distance from station: SSO 44km
Uppdaterad: 29/07/2021 14:10
Mist, Genommulet
Mist, Genommulet
 Vind frn calm
Vind: Vindstilla
Temperatur: 13°C
Daggpunkt: 13°C
Luftfuktighet: 100%
Barometer: 1015.2 hPa
Summering: Mist
Clouds: Genommulet
Visibility: 3 km
Cloud details: Genommulet 61 m
2021/07/29 12:10 KWVI 291210Z AUTO 00000KT 2SM BR OVC002 13/13 A2998 RMK AO2 T01330133
KHAF - Half Moon Bay, California, USA
Distance from station: VNV 50km
Uppdaterad: 09/07/2021 16:35
NOT Current
Ltt regn, Klart
Ltt regn, Klart
 
Temperatur: 13°C
Daggpunkt: 12°C
Luftfuktighet: 94%
Barometer: 1012.9 hPa
Summering: Ltt regn
Clouds: Klart
Visibility: 6 km
2021/07/09 14:35 KHAF 091435Z AUTO 4SM -RA CLR 13/12 A2991 RMK AO2
 
KHWD - Hayward, California, USA
Distance from station: N 44km
Uppdaterad: 29/07/2021 13:54
Klart
Klart
 Vind frn VNV
Vind: VNV 7 km/h
Temperatur: 14°C
Daggpunkt: 13°C
Luftfuktighet: 94%
Barometer: 1014.6 hPa
Clouds: Klart
Visibility: 16 km
2021/07/29 11:54 KHWD 291154Z 30004KT 10SM CLR 14/13 A2996 RMK AO2 SLP155 T01440128 10161 20144 55003
KLVK - Livermore, California, USA
Distance from station: NNO 51km
Uppdaterad: 29/07/2021 13:53
Klart
Klart
 Vind frn V
Vind: V 7 km/h
Temperatur: 18°C
Daggpunkt: 12°C
Luftfuktighet: 68%
Barometer: 1013.9 hPa
Clouds: Klart
Visibility: 16 km
2021/07/29 11:53 KLVK 291153Z AUTO 28004KT 10SM CLR 18/12 A2994 RMK AO2 SLP134 T01780122 10211 20172 56002